sensor_id;sensor_type;location;lat;lon;timestamp;P1;durP1;ratioP1;P2;durP2;ratioP2
27802;SDS011;15182;48.174;11.562;2024-03-07T00:00:10;9.10;;;8.47;;
27802;SDS011;15182;48.174;11.562;2024-03-07T00:02:44;9.93;;;8.93;;
27802;SDS011;15182;48.174;11.562;2024-03-07T00:05:14;9.80;;;9.00;;
27802;SDS011;15182;48.174;11.562;2024-03-07T00:07:42;9.27;;;8.57;;
27802;SDS011;15182;48.174;11.562;2024-03-07T00:10:10;9.90;;;9.00;;
27802;SDS011;15182;48.174;11.562;2024-03-07T00:12:41;9.97;;;9.13;;
27802;SDS011;15182;48.174;11.562;2024-03-07T00:15:10;9.30;;;8.53;;
27802;SDS011;15182;48.174;11.562;2024-03-07T00:17:41;10.50;;;9.50;;
27802;SDS011;15182;48.174;11.562;2024-03-07T00:20:10;9.47;;;8.63;;
27802;SDS011;15182;48.174;11.562;2024-03-07T00:22:42;10.73;;;9.63;;
27802;SDS011;15182;48.174;11.562;2024-03-07T00:25:10;10.07;;;9.30;;
27802;SDS011;15182;48.174;11.562;2024-03-07T00:27:45;11.13;;;9.63;;
27802;SDS011;15182;48.174;11.562;2024-03-07T00:30:13;11.17;;;10.17;;
27802;SDS011;15182;48.174;11.562;2024-03-07T00:32:44;10.63;;;9.67;;
27802;SDS011;15182;48.174;11.562;2024-03-07T00:35:13;10.73;;;9.67;;
27802;SDS011;15182;48.174;11.562;2024-03-07T00:37:41;10.40;;;9.40;;
27802;SDS011;15182;48.174;11.562;2024-03-07T00:40:09;10.50;;;9.43;;
27802;SDS011;15182;48.174;11.562;2024-03-07T00:42:39;11.17;;;10.07;;
27802;SDS011;15182;48.174;11.562;2024-03-07T00:45:07;11.17;;;10.03;;
27802;SDS011;15182;48.174;11.562;2024-03-07T00:47:35;10.83;;;9.67;;
27802;SDS011;15182;48.174;11.562;2024-03-07T00:50:04;12.47;;;11.20;;
27802;SDS011;15182;48.174;11.562;2024-03-07T00:52:34;12.50;;;10.63;;
27802;SDS011;15182;48.174;11.562;2024-03-07T00:55:02;11.47;;;10.37;;
27802;SDS011;15182;48.174;11.562;2024-03-07T00:57:31;14.27;;;10.27;;
27802;SDS011;15182;48.174;11.562;2024-03-07T01:00:01;10.97;;;9.83;;
27802;SDS011;15182;48.174;11.562;2024-03-07T01:02:37;11.57;;;10.13;;
27802;SDS011;15182;48.174;11.562;2024-03-07T01:05:09;13.40;;;10.93;;
27802;SDS011;15182;48.174;11.562;2024-03-07T01:07:39;12.73;;;10.90;;
27802;SDS011;15182;48.174;11.562;2024-03-07T01:10:07;12.73;;;10.77;;
27802;SDS011;15182;48.174;11.562;2024-03-07T01:12:35;12.00;;;10.77;;
27802;SDS011;15182;48.174;11.562;2024-03-07T01:15:05;15.70;;;11.97;;
27802;SDS011;15182;48.174;11.562;2024-03-07T01:17:34;17.00;;;10.90;;
27802;SDS011;15182;48.174;11.562;2024-03-07T01:20:02;15.87;;;12.07;;
27802;SDS011;15182;48.174;11.562;2024-03-07T01:22:31;16.07;;;12.00;;
27802;SDS011;15182;48.174;11.562;2024-03-07T01:25:00;14.03;;;10.47;;
27802;SDS011;15182;48.174;11.562;2024-03-07T01:27:27;14.53;;;11.93;;
27802;SDS011;15182;48.174;11.562;2024-03-07T01:29:56;15.97;;;12.13;;
27802;SDS011;15182;48.174;11.562;2024-03-07T01:32:25;13.73;;;11.83;;
27802;SDS011;15182;48.174;11.562;2024-03-07T01:34:53;13.77;;;11.57;;
27802;SDS011;15182;48.174;11.562;2024-03-07T01:37:21;15.77;;;12.43;;
27802;SDS011;15182;48.174;11.562;2024-03-07T01:39:49;20.03;;;12.50;;
27802;SDS011;15182;48.174;11.562;2024-03-07T01:42:17;17.50;;;13.30;;
27802;SDS011;15182;48.174;11.562;2024-03-07T01:44:45;14.87;;;11.40;;
27802;SDS011;15182;48.174;11.562;2024-03-07T01:47:13;17.47;;;12.20;;
27802;SDS011;15182;48.174;11.562;2024-03-07T01:49:43;18.30;;;12.90;;
27802;SDS011;15182;48.174;11.562;2024-03-07T01:52:11;15.37;;;11.90;;
27802;SDS011;15182;48.174;11.562;2024-03-07T01:54:40;17.03;;;11.80;;
27802;SDS011;15182;48.174;11.562;2024-03-07T01:57:08;18.20;;;13.33;;
27802;SDS011;15182;48.174;11.562;2024-03-07T01:59:36;18.23;;;12.90;;
27802;SDS011;15182;48.174;11.562;2024-03-07T02:02:05;14.80;;;12.10;;
27802;SDS011;15182;48.174;11.562;2024-03-07T02:04:33;16.27;;;13.07;;
27802;SDS011;15182;48.174;11.562;2024-03-07T02:07:03;18.27;;;13.73;;
27802;SDS011;15182;48.174;11.562;2024-03-07T02:09:31;19.67;;;13.40;;
27802;SDS011;15182;48.174;11.562;2024-03-07T02:11:58;17.10;;;12.80;;
27802;SDS011;15182;48.174;11.562;2024-03-07T02:14:26;17.37;;;12.80;;
27802;SDS011;15182;48.174;11.562;2024-03-07T02:16:55;16.70;;;13.43;;
27802;SDS011;15182;48.174;11.562;2024-03-07T02:19:23;20.43;;;13.73;;
27802;SDS011;15182;48.174;11.562;2024-03-07T02:21:53;16.67;;;12.70;;
27802;SDS011;15182;48.174;11.562;2024-03-07T02:24:21;18.30;;;13.20;;
27802;SDS011;15182;48.174;11.562;2024-03-07T02:26:49;16.83;;;13.17;;
27802;SDS011;15182;48.174;11.562;2024-03-07T02:29:18;22.00;;;13.90;;
27802;SDS011;15182;48.174;11.562;2024-03-07T02:31:46;19.17;;;13.97;;
27802;SDS011;15182;48.174;11.562;2024-03-07T02:34:14;21.80;;;13.27;;
27802;SDS011;15182;48.174;11.562;2024-03-07T02:36:42;19.50;;;14.47;;
27802;SDS011;15182;48.174;11.562;2024-03-07T02:39:11;20.37;;;14.13;;
27802;SDS011;15182;48.174;11.562;2024-03-07T02:41:39;21.17;;;14.50;;
27802;SDS011;15182;48.174;11.562;2024-03-07T02:44:07;21.63;;;14.63;;
27802;SDS011;15182;48.174;11.562;2024-03-07T02:46:35;24.87;;;14.13;;
27802;SDS011;15182;48.174;11.562;2024-03-07T02:49:04;24.33;;;15.23;;
27802;SDS011;15182;48.174;11.562;2024-03-07T02:51:32;24.27;;;15.20;;
27802;SDS011;15182;48.174;11.562;2024-03-07T02:54:00;20.97;;;14.63;;
27802;SDS011;15182;48.174;11.562;2024-03-07T02:56:32;23.60;;;15.70;;
27802;SDS011;15182;48.174;11.562;2024-03-07T02:59:01;24.37;;;15.20;;
27802;SDS011;15182;48.174;11.562;2024-03-07T03:01:29;25.03;;;15.40;;
27802;SDS011;15182;48.174;11.562;2024-03-07T03:03:56;25.10;;;15.80;;
27802;SDS011;15182;48.174;11.562;2024-03-07T03:06:24;25.60;;;16.30;;
27802;SDS011;15182;48.174;11.562;2024-03-07T03:08:53;28.77;;;16.50;;
27802;SDS011;15182;48.174;11.562;2024-03-07T03:11:21;23.13;;;15.80;;
27802;SDS011;15182;48.174;11.562;2024-03-07T03:13:50;22.80;;;15.43;;
27802;SDS011;15182;48.174;11.562;2024-03-07T03:16:18;27.30;;;17.80;;
27802;SDS011;15182;48.174;11.562;2024-03-07T03:18:47;24.40;;;15.53;;
27802;SDS011;15182;48.174;11.562;2024-03-07T03:21:15;25.90;;;17.23;;
27802;SDS011;15182;48.174;11.562;2024-03-07T03:23:43;25.43;;;16.40;;
27802;SDS011;15182;48.174;11.562;2024-03-07T03:26:12;25.37;;;16.60;;
27802;SDS011;15182;48.174;11.562;2024-03-07T03:28:41;23.70;;;15.83;;
27802;SDS011;15182;48.174;11.562;2024-03-07T03:31:11;26.97;;;16.57;;
27802;SDS011;15182;48.174;11.562;2024-03-07T03:33:40;28.00;;;17.30;;
27802;SDS011;15182;48.174;11.562;2024-03-07T03:36:07;30.10;;;17.47;;
27802;SDS011;15182;48.174;11.562;2024-03-07T03:38:36;29.77;;;17.07;;
27802;SDS011;15182;48.174;11.562;2024-03-07T03:41:04;30.17;;;18.37;;
27802;SDS011;15182;48.174;11.562;2024-03-07T03:43:32;28.77;;;16.13;;
27802;SDS011;15182;48.174;11.562;2024-03-07T03:46:00;28.87;;;17.60;;
27802;SDS011;15182;48.174;11.562;2024-03-07T03:48:29;32.20;;;17.73;;
27802;SDS011;15182;48.174;11.562;2024-03-07T03:50:57;31.07;;;18.70;;
27802;SDS011;15182;48.174;11.562;2024-03-07T03:53:25;28.10;;;17.17;;
27802;SDS011;15182;48.174;11.562;2024-03-07T03:55:53;29.97;;;18.57;;
27802;SDS011;15182;48.174;11.562;2024-03-07T03:58:21;29.70;;;16.97;;
27802;SDS011;15182;48.174;11.562;2024-03-07T04:00:49;28.60;;;17.23;;
27802;SDS011;15182;48.174;11.562;2024-03-07T04:03:17;30.23;;;17.67;;
27802;SDS011;15182;48.174;11.562;2024-03-07T04:05:46;31.20;;;17.27;;
27802;SDS011;15182;48.174;11.562;2024-03-07T04:08:15;29.37;;;18.10;;
27802;SDS011;15182;48.174;11.562;2024-03-07T04:10:46;29.13;;;16.83;;
27802;SDS011;15182;48.174;11.562;2024-03-07T04:13:13;28.20;;;16.77;;
27802;SDS011;15182;48.174;11.562;2024-03-07T04:15:41;30.87;;;17.97;;
27802;SDS011;15182;48.174;11.562;2024-03-07T04:18:09;32.10;;;18.07;;
27802;SDS011;15182;48.174;11.562;2024-03-07T04:20:37;33.63;;;18.70;;
27802;SDS011;15182;48.174;11.562;2024-03-07T04:23:06;35.80;;;18.47;;
27802;SDS011;15182;48.174;11.562;2024-03-07T04:25:34;33.00;;;18.60;;
27802;SDS011;15182;48.174;11.562;2024-03-07T04:28:02;35.90;;;19.43;;
27802;SDS011;15182;48.174;11.562;2024-03-07T04:30:31;34.97;;;19.80;;
27802;SDS011;15182;48.174;11.562;2024-03-07T04:32:59;38.07;;;20.57;;
27802;SDS011;15182;48.174;11.562;2024-03-07T04:35:27;38.27;;;20.93;;
27802;SDS011;15182;48.174;11.562;2024-03-07T04:37:57;37.13;;;21.07;;
27802;SDS011;15182;48.174;11.562;2024-03-07T04:40:26;36.97;;;20.67;;
27802;SDS011;15182;48.174;11.562;2024-03-07T04:42:54;34.73;;;19.97;;
27802;SDS011;15182;48.174;11.562;2024-03-07T04:45:22;33.20;;;20.00;;
27802;SDS011;15182;48.174;11.562;2024-03-07T04:47:50;34.70;;;20.33;;
27802;SDS011;15182;48.174;11.562;2024-03-07T04:50:18;42.03;;;20.70;;
27802;SDS011;15182;48.174;11.562;2024-03-07T04:52:46;35.60;;;20.17;;
27802;SDS011;15182;48.174;11.562;2024-03-07T04:55:14;35.90;;;20.67;;
27802;SDS011;15182;48.174;11.562;2024-03-07T04:57:44;36.97;;;20.43;;
27802;SDS011;15182;48.174;11.562;2024-03-07T05:00:12;39.47;;;20.37;;
27802;SDS011;15182;48.174;11.562;2024-03-07T05:02:45;35.53;;;19.33;;
27802;SDS011;15182;48.174;11.562;2024-03-07T05:05:14;34.20;;;20.23;;
27802;SDS011;15182;48.174;11.562;2024-03-07T05:07:48;41.80;;;21.20;;
27802;SDS011;15182;48.174;11.562;2024-03-07T05:10:16;37.50;;;21.57;;
27802;SDS011;15182;48.174;11.562;2024-03-07T05:12:46;34.57;;;20.30;;
27802;SDS011;15182;48.174;11.562;2024-03-07T05:15:14;38.30;;;20.93;;
27802;SDS011;15182;48.174;11.562;2024-03-07T05:17:43;38.53;;;20.67;;
27802;SDS011;15182;48.174;11.562;2024-03-07T05:20:11;40.20;;;21.67;;
27802;SDS011;15182;48.174;11.562;2024-03-07T05:22:39;40.57;;;22.37;;
27802;SDS011;15182;48.174;11.562;2024-03-07T05:25:10;38.00;;;21.27;;
27802;SDS011;15182;48.174;11.562;2024-03-07T05:27:38;35.50;;;21.40;;
27802;SDS011;15182;48.174;11.562;2024-03-07T05:30:08;32.13;;;20.13;;
27802;SDS011;15182;48.174;11.562;2024-03-07T05:32:39;43.23;;;22.83;;
27802;SDS011;15182;48.174;11.562;2024-03-07T05:35:07;40.97;;;22.47;;
27802;SDS011;15182;48.174;11.562;2024-03-07T05:37:37;39.93;;;21.13;;
27802;SDS011;15182;48.174;11.562;2024-03-07T05:40:07;39.47;;;20.57;;
27802;SDS011;15182;48.174;11.562;2024-03-07T05:42:36;38.60;;;21.37;;
27802;SDS011;15182;48.174;11.562;2024-03-07T05:45:04;38.00;;;21.10;;
27802;SDS011;15182;48.174;11.562;2024-03-07T05:47:35;40.77;;;21.67;;
27802;SDS011;15182;48.174;11.562;2024-03-07T05:50:03;40.60;;;21.33;;
27802;SDS011;15182;48.174;11.562;2024-03-07T05:52:34;43.27;;;21.00;;
27802;SDS011;15182;48.174;11.562;2024-03-07T05:55:02;44.80;;;22.77;;
27802;SDS011;15182;48.174;11.562;2024-03-07T05:57:32;40.20;;;22.30;;
27802;SDS011;15182;48.174;11.562;2024-03-07T06:00:00;43.23;;;21.93;;
27802;SDS011;15182;48.174;11.562;2024-03-07T06:02:40;45.03;;;23.80;;
27802;SDS011;15182;48.174;11.562;2024-03-07T06:05:08;38.03;;;21.77;;
27802;SDS011;15182;48.174;11.562;2024-03-07T06:07:41;42.10;;;22.43;;
27802;SDS011;15182;48.174;11.562;2024-03-07T06:10:09;41.93;;;22.93;;
27802;SDS011;15182;48.174;11.562;2024-03-07T06:12:37;39.97;;;22.53;;
27802;SDS011;15182;48.174;11.562;2024-03-07T06:15:11;44.00;;;21.53;;
27802;SDS011;15182;48.174;11.562;2024-03-07T06:17:40;45.57;;;22.63;;
27802;SDS011;15182;48.174;11.562;2024-03-07T06:20:12;40.00;;;22.27;;
27802;SDS011;15182;48.174;11.562;2024-03-07T06:22:48;42.67;;;22.77;;
27802;SDS011;15182;48.174;11.562;2024-03-07T06:25:16;42.53;;;22.50;;
27802;SDS011;15182;48.174;11.562;2024-03-07T06:27:48;38.90;;;21.93;;
27802;SDS011;15182;48.174;11.562;2024-03-07T06:30:18;40.47;;;22.50;;
27802;SDS011;15182;48.174;11.562;2024-03-07T06:32:47;42.50;;;22.70;;
27802;SDS011;15182;48.174;11.562;2024-03-07T06:35:15;39.33;;;22.23;;
27802;SDS011;15182;48.174;11.562;2024-03-07T06:37:45;38.80;;;21.97;;
27802;SDS011;15182;48.174;11.562;2024-03-07T06:40:13;43.10;;;22.63;;
27802;SDS011;15182;48.174;11.562;2024-03-07T06:42:47;40.13;;;21.27;;
27802;SDS011;15182;48.174;11.562;2024-03-07T06:45:15;43.90;;;22.87;;
27802;SDS011;15182;48.174;11.562;2024-03-07T06:47:44;41.97;;;22.17;;
27802;SDS011;15182;48.174;11.562;2024-03-07T06:50:14;42.13;;;21.83;;
27802;SDS011;15182;48.174;11.562;2024-03-07T06:52:45;41.83;;;22.10;;
27802;SDS011;15182;48.174;11.562;2024-03-07T06:55:14;38.63;;;22.00;;
27802;SDS011;15182;48.174;11.562;2024-03-07T06:57:44;42.93;;;23.27;;
27802;SDS011;15182;48.174;11.562;2024-03-07T07:00:13;48.67;;;23.70;;
27802;SDS011;15182;48.174;11.562;2024-03-07T07:02:45;36.77;;;21.73;;
27802;SDS011;15182;48.174;11.562;2024-03-07T07:05:15;42.60;;;22.57;;
27802;SDS011;15182;48.174;11.562;2024-03-07T07:07:44;37.43;;;20.63;;
27802;SDS011;15182;48.174;11.562;2024-03-07T07:10:12;41.80;;;22.03;;
27802;SDS011;15182;48.174;11.562;2024-03-07T07:12:44;44.53;;;22.93;;
27802;SDS011;15182;48.174;11.562;2024-03-07T07:15:13;39.43;;;21.97;;
27802;SDS011;15182;48.174;11.562;2024-03-07T07:17:42;37.67;;;20.87;;
27802;SDS011;15182;48.174;11.562;2024-03-07T07:20:12;40.53;;;21.30;;
27802;SDS011;15182;48.174;11.562;2024-03-07T07:22:42;40.90;;;22.10;;
27802;SDS011;15182;48.174;11.562;2024-03-07T07:25:13;44.37;;;22.80;;
27802;SDS011;15182;48.174;11.562;2024-03-07T07:27:43;42.83;;;22.13;;
27802;SDS011;15182;48.174;11.562;2024-03-07T07:30:13;40.90;;;21.90;;
27802;SDS011;15182;48.174;11.562;2024-03-07T07:32:42;47.07;;;24.10;;
27802;SDS011;15182;48.174;11.562;2024-03-07T07:35:12;43.07;;;21.93;;
27802;SDS011;15182;48.174;11.562;2024-03-07T07:37:41;44.47;;;23.83;;
27802;SDS011;15182;48.174;11.562;2024-03-07T07:40:12;40.27;;;23.27;;
27802;SDS011;15182;48.174;11.562;2024-03-07T07:42:44;47.00;;;23.00;;
27802;SDS011;15182;48.174;11.562;2024-03-07T07:45:13;41.37;;;22.57;;
27802;SDS011;15182;48.174;11.562;2024-03-07T07:47:43;44.17;;;23.33;;
27802;SDS011;15182;48.174;11.562;2024-03-07T07:50:12;39.83;;;22.27;;
27802;SDS011;15182;48.174;11.562;2024-03-07T07:52:45;41.70;;;22.63;;
27802;SDS011;15182;48.174;11.562;2024-03-07T07:55:15;36.27;;;21.87;;
27802;SDS011;15182;48.174;11.562;2024-03-07T07:57:46;40.70;;;22.43;;
27802;SDS011;15182;48.174;11.562;2024-03-07T08:00:19;40.60;;;22.93;;
27802;SDS011;15182;48.174;11.562;2024-03-07T08:02:53;38.77;;;22.40;;
27802;SDS011;15182;48.174;11.562;2024-03-07T08:05:23;41.87;;;22.97;;
27802;SDS011;15182;48.174;11.562;2024-03-07T08:07:55;40.83;;;22.37;;
27802;SDS011;15182;48.174;11.562;2024-03-07T08:10:25;43.07;;;22.07;;
27802;SDS011;15182;48.174;11.562;2024-03-07T08:12:55;42.00;;;23.13;;
27802;SDS011;15182;48.174;11.562;2024-03-07T08:15:24;40.00;;;21.50;;
27802;SDS011;15182;48.174;11.562;2024-03-07T08:17:53;39.63;;;21.57;;
27802;SDS011;15182;48.174;11.562;2024-03-07T08:20:22;42.90;;;23.27;;
27802;SDS011;15182;48.174;11.562;2024-03-07T08:22:52;46.87;;;24.20;;
27802;SDS011;15182;48.174;11.562;2024-03-07T08:25:23;44.00;;;23.67;;
27802;SDS011;15182;48.174;11.562;2024-03-07T08:27:53;42.00;;;22.70;;
27802;SDS011;15182;48.174;11.562;2024-03-07T08:30:22;46.40;;;23.77;;
27802;SDS011;15182;48.174;11.562;2024-03-07T08:32:52;45.20;;;22.43;;
27802;SDS011;15182;48.174;11.562;2024-03-07T08:35:21;44.93;;;23.37;;
27802;SDS011;15182;48.174;11.562;2024-03-07T08:37:51;44.40;;;23.33;;
27802;SDS011;15182;48.174;11.562;2024-03-07T08:40:22;44.40;;;21.87;;
27802;SDS011;15182;48.174;11.562;2024-03-07T08:42:52;39.00;;;22.20;;
27802;SDS011;15182;48.174;11.562;2024-03-07T08:45:21;42.47;;;23.77;;
27802;SDS011;15182;48.174;11.562;2024-03-07T08:47:49;47.17;;;23.73;;
27802;SDS011;15182;48.174;11.562;2024-03-07T08:50:20;41.50;;;22.93;;
27802;SDS011;15182;48.174;11.562;2024-03-07T08:52:49;41.87;;;22.97;;
27802;SDS011;15182;48.174;11.562;2024-03-07T08:55:19;41.60;;;22.20;;
27802;SDS011;15182;48.174;11.562;2024-03-07T08:57:50;42.17;;;22.20;;
27802;SDS011;15182;48.174;11.562;2024-03-07T09:00:18;47.70;;;23.20;;
27802;SDS011;15182;48.174;11.562;2024-03-07T09:02:49;43.57;;;23.20;;
27802;SDS011;15182;48.174;11.562;2024-03-07T09:05:19;42.63;;;21.47;;
27802;SDS011;15182;48.174;11.562;2024-03-07T09:07:48;44.63;;;22.40;;
27802;SDS011;15182;48.174;11.562;2024-03-07T09:10:17;42.47;;;21.83;;
27802;SDS011;15182;48.174;11.562;2024-03-07T09:12:50;41.20;;;21.90;;
27802;SDS011;15182;48.174;11.562;2024-03-07T09:15:19;40.13;;;21.77;;
27802;SDS011;15182;48.174;11.562;2024-03-07T09:17:48;37.73;;;20.97;;
27802;SDS011;15182;48.174;11.562;2024-03-07T09:20:16;35.57;;;20.80;;
27802;SDS011;15182;48.174;11.562;2024-03-07T09:22:45;38.80;;;20.13;;
27802;SDS011;15182;48.174;11.562;2024-03-07T09:25:14;37.57;;;19.60;;
27802;SDS011;15182;48.174;11.562;2024-03-07T09:27:44;38.43;;;20.57;;
27802;SDS011;15182;48.174;11.562;2024-03-07T09:30:14;43.23;;;20.93;;
27802;SDS011;15182;48.174;11.562;2024-03-07T09:32:45;37.43;;;20.53;;
27802;SDS011;15182;48.174;11.562;2024-03-07T09:35:13;35.80;;;20.57;;
27802;SDS011;15182;48.174;11.562;2024-03-07T09:37:42;43.47;;;21.20;;
27802;SDS011;15182;48.174;11.562;2024-03-07T09:40:11;34.73;;;19.57;;
27802;SDS011;15182;48.174;11.562;2024-03-07T09:42:43;37.03;;;20.17;;
27802;SDS011;15182;48.174;11.562;2024-03-07T09:45:15;39.30;;;20.47;;
27802;SDS011;15182;48.174;11.562;2024-03-07T09:47:45;41.27;;;21.67;;
27802;SDS011;15182;48.174;11.562;2024-03-07T09:50:15;54.30;;;24.53;;
27802;SDS011;15182;48.174;11.562;2024-03-07T09:52:45;48.97;;;24.00;;
27802;SDS011;15182;48.174;11.562;2024-03-07T09:55:16;42.77;;;22.07;;
27802;SDS011;15182;48.174;11.562;2024-03-07T09:57:47;43.77;;;21.97;;
27802;SDS011;15182;48.174;11.562;2024-03-07T10:00:16;38.90;;;19.67;;
27802;SDS011;15182;48.174;11.562;2024-03-07T10:02:53;37.03;;;20.50;;
27802;SDS011;15182;48.174;11.562;2024-03-07T10:05:23;35.47;;;20.63;;
27802;SDS011;15182;48.174;11.562;2024-03-07T10:07:55;34.40;;;18.67;;
27802;SDS011;15182;48.174;11.562;2024-03-07T10:10:23;35.00;;;18.97;;
27802;SDS011;15182;48.174;11.562;2024-03-07T10:12:53;34.70;;;20.13;;
27802;SDS011;15182;48.174;11.562;2024-03-07T10:15:26;37.30;;;19.03;;
27802;SDS011;15182;48.174;11.562;2024-03-07T10:17:55;30.57;;;18.60;;
27802;SDS011;15182;48.174;11.562;2024-03-07T10:20:23;34.10;;;19.37;;
27802;SDS011;15182;48.174;11.562;2024-03-07T10:22:51;37.97;;;19.30;;
27802;SDS011;15182;48.174;11.562;2024-03-07T10:25:20;36.37;;;19.13;;
27802;SDS011;15182;48.174;11.562;2024-03-07T10:27:50;28.83;;;18.07;;
27802;SDS011;15182;48.174;11.562;2024-03-07T10:30:20;30.80;;;18.97;;
27802;SDS011;15182;48.174;11.562;2024-03-07T10:32:49;32.00;;;18.50;;
27802;SDS011;15182;48.174;11.562;2024-03-07T10:35:21;32.10;;;18.10;;
27802;SDS011;15182;48.174;11.562;2024-03-07T10:37:50;31.87;;;18.47;;
27802;SDS011;15182;48.174;11.562;2024-03-07T10:40:19;34.00;;;19.23;;
27802;SDS011;15182;48.174;11.562;2024-03-07T10:42:48;32.83;;;18.63;;
27802;SDS011;15182;48.174;11.562;2024-03-07T10:45:20;32.90;;;19.67;;
27802;SDS011;15182;48.174;11.562;2024-03-07T10:47:52;36.37;;;20.53;;
27802;SDS011;15182;48.174;11.562;2024-03-07T10:50:30;35.17;;;20.00;;
27802;SDS011;15182;48.174;11.562;2024-03-07T10:53:13;33.73;;;19.47;;
27802;SDS011;15182;48.174;11.562;2024-03-07T10:55:52;38.83;;;19.73;;
27802;SDS011;15182;48.174;11.562;2024-03-07T10:58:37;35.30;;;19.17;;
27802;SDS011;15182;48.174;11.562;2024-03-07T11:01:18;36.87;;;19.30;;
27802;SDS011;15182;48.174;11.562;2024-03-07T11:03:50;31.30;;;17.57;;
27802;SDS011;15182;48.174;11.562;2024-03-07T11:06:18;28.87;;;17.63;;
27802;SDS011;15182;48.174;11.562;2024-03-07T11:08:47;28.53;;;17.67;;
27802;SDS011;15182;48.174;11.562;2024-03-07T11:11:15;30.13;;;17.90;;
27802;SDS011;15182;48.174;11.562;2024-03-07T11:13:43;29.90;;;17.70;;
27802;SDS011;15182;48.174;11.562;2024-03-07T11:16:12;32.50;;;17.47;;
27802;SDS011;15182;48.174;11.562;2024-03-07T11:18:43;31.33;;;17.63;;
27802;SDS011;15182;48.174;11.562;2024-03-07T11:21:53;32.20;;;17.07;;
27802;SDS011;15182;48.174;11.562;2024-03-07T11:24:22;32.63;;;18.20;;
27802;SDS011;15182;48.174;11.562;2024-03-07T11:26:52;32.10;;;18.30;;
27802;SDS011;15182;48.174;11.562;2024-03-07T11:29:39;29.93;;;18.13;;
27802;SDS011;15182;48.174;11.562;2024-03-07T11:32:18;32.40;;;18.20;;
27802;SDS011;15182;48.174;11.562;2024-03-07T11:34:49;33.53;;;17.67;;
27802;SDS011;15182;48.174;11.562;2024-03-07T11:40:07;29.83;;;17.47;;
27802;SDS011;15182;48.174;11.562;2024-03-07T11:42:44;28.50;;;17.10;;
27802;SDS011;15182;48.174;11.562;2024-03-07T11:45:15;31.80;;;17.53;;
27802;SDS011;15182;48.174;11.562;2024-03-07T11:47:52;32.73;;;18.23;;
27802;SDS011;15182;48.174;11.562;2024-03-07T11:50:27;31.23;;;17.33;;
27802;SDS011;15182;48.174;11.562;2024-03-07T11:52:55;27.40;;;17.10;;
27802;SDS011;15182;48.174;11.562;2024-03-07T11:55:23;33.43;;;17.63;;
27802;SDS011;15182;48.174;11.562;2024-03-07T11:57:51;32.97;;;17.63;;
27802;SDS011;15182;48.174;11.562;2024-03-07T12:00:19;34.00;;;18.50;;
27802;SDS011;15182;48.174;11.562;2024-03-07T12:02:50;33.33;;;17.67;;
27802;SDS011;15182;48.174;11.562;2024-03-07T12:05:21;29.07;;;17.30;;
27802;SDS011;15182;48.174;11.562;2024-03-07T12:07:54;28.80;;;17.17;;
27802;SDS011;15182;48.174;11.562;2024-03-07T12:10:23;29.87;;;18.20;;
27802;SDS011;15182;48.174;11.562;2024-03-07T12:12:51;35.03;;;17.53;;
27802;SDS011;15182;48.174;11.562;2024-03-07T12:15:22;30.17;;;17.33;;
27802;SDS011;15182;48.174;11.562;2024-03-07T12:17:50;30.20;;;17.20;;
27802;SDS011;15182;48.174;11.562;2024-03-07T12:20:19;32.90;;;17.57;;
27802;SDS011;15182;48.174;11.562;2024-03-07T12:22:58;33.07;;;18.37;;
27802;SDS011;15182;48.174;11.562;2024-03-07T12:25:28;32.30;;;17.30;;
27802;SDS011;15182;48.174;11.562;2024-03-07T12:28:03;29.10;;;16.30;;
27802;SDS011;15182;48.174;11.562;2024-03-07T12:30:46;31.23;;;17.90;;
27802;SDS011;15182;48.174;11.562;2024-03-07T12:33:19;30.33;;;16.90;;
27802;SDS011;15182;48.174;11.562;2024-03-07T12:35:49;31.10;;;17.37;;
27802;SDS011;15182;48.174;11.562;2024-03-07T12:38:20;35.33;;;16.90;;
27802;SDS011;15182;48.174;11.562;2024-03-07T12:41:01;28.70;;;16.57;;
27802;SDS011;15182;48.174;11.562;2024-03-07T12:43:32;32.60;;;17.00;;
27802;SDS011;15182;48.174;11.562;2024-03-07T12:46:01;30.10;;;16.90;;
27802;SDS011;15182;48.174;11.562;2024-03-07T12:48:30;28.53;;;17.03;;
27802;SDS011;15182;48.174;11.562;2024-03-07T12:50:59;30.30;;;18.17;;
27802;SDS011;15182;48.174;11.562;2024-03-07T12:53:28;31.20;;;18.23;;
27802;SDS011;15182;48.174;11.562;2024-03-07T12:55:57;29.47;;;16.97;;
27802;SDS011;15182;48.174;11.562;2024-03-07T12:58:26;28.93;;;17.00;;
27802;SDS011;15182;48.174;11.562;2024-03-07T13:00:56;27.73;;;16.47;;
27802;SDS011;15182;48.174;11.562;2024-03-07T13:03:24;30.33;;;17.70;;
27802;SDS011;15182;48.174;11.562;2024-03-07T13:05:55;31.20;;;17.93;;
27802;SDS011;15182;48.174;11.562;2024-03-07T13:08:26;27.77;;;15.97;;
27802;SDS011;15182;48.174;11.562;2024-03-07T13:10:56;30.80;;;17.80;;
27802;SDS011;15182;48.174;11.562;2024-03-07T13:13:24;31.77;;;17.83;;
27802;SDS011;15182;48.174;11.562;2024-03-07T13:15:52;31.47;;;16.50;;
27802;SDS011;15182;48.174;11.562;2024-03-07T13:18:21;30.03;;;17.67;;
27802;SDS011;15182;48.174;11.562;2024-03-07T13:20:49;28.03;;;17.00;;
27802;SDS011;15182;48.174;11.562;2024-03-07T13:23:18;27.93;;;17.03;;
27802;SDS011;15182;48.174;11.562;2024-03-07T13:25:47;32.97;;;16.33;;
27802;SDS011;15182;48.174;11.562;2024-03-07T13:28:15;26.93;;;15.67;;
27802;SDS011;15182;48.174;11.562;2024-03-07T13:30:50;26.90;;;15.23;;
27802;SDS011;15182;48.174;11.562;2024-03-07T13:33:20;24.87;;;16.23;;
27802;SDS011;15182;48.174;11.562;2024-03-07T13:35:49;25.87;;;15.30;;
27802;SDS011;15182;48.174;11.562;2024-03-07T13:38:18;27.53;;;15.53;;
27802;SDS011;15182;48.174;11.562;2024-03-07T13:40:47;32.27;;;16.80;;
27802;SDS011;15182;48.174;11.562;2024-03-07T13:43:15;24.07;;;15.30;;
27802;SDS011;15182;48.174;11.562;2024-03-07T13:45:44;29.27;;;16.23;;
27802;SDS011;15182;48.174;11.562;2024-03-07T13:48:14;27.60;;;16.23;;
27802;SDS011;15182;48.174;11.562;2024-03-07T13:50:43;30.23;;;16.20;;
27802;SDS011;15182;48.174;11.562;2024-03-07T13:53:11;32.17;;;15.70;;
27802;SDS011;15182;48.174;11.562;2024-03-07T13:55:41;29.67;;;15.30;;
27802;SDS011;15182;48.174;11.562;2024-03-07T14:01:45;25.37;;;14.93;;
27802;SDS011;15182;48.174;11.562;2024-03-07T14:04:31;26.90;;;15.13;;
27802;SDS011;15182;48.174;11.562;2024-03-07T14:07:22;29.10;;;15.80;;
27802;SDS011;15182;48.174;11.562;2024-03-07T14:10:25;24.87;;;15.40;;
27802;SDS011;15182;48.174;11.562;2024-03-07T14:13:27;30.47;;;16.73;;
27802;SDS011;15182;48.174;11.562;2024-03-07T14:16:13;26.40;;;16.03;;
27802;SDS011;15182;48.174;11.562;2024-03-07T14:19:24;24.97;;;15.93;;
27802;SDS011;15182;48.174;11.562;2024-03-07T14:22:31;26.50;;;15.97;;
27802;SDS011;15182;48.174;11.562;2024-03-07T14:25:47;30.10;;;16.77;;
27802;SDS011;15182;48.174;11.562;2024-03-07T14:28:49;32.03;;;17.50;;
27802;SDS011;15182;48.174;11.562;2024-03-07T14:31:31;27.77;;;16.67;;
27802;SDS011;15182;48.174;11.562;2024-03-07T14:34:02;29.10;;;16.93;;
27802;SDS011;15182;48.174;11.562;2024-03-07T14:36:38;31.30;;;17.47;;